Ocean State — WDB4601 — position and weather

sailwx.info

Track history (hours):
 
Tides and Currents Weather Stations Pressure Air Temp Water Temp Dewpoint Dewpoint Depression Visibility Wind Speed Wind Dir Waves Ship Positions

Ocean State

Owner: New England Fast Ferry Company LLC, BOSTON, MA. More information available from US FCC via Universal Licensing System and Coast Guard Vessel Documentation Center.

Last reported at 2018-Jun-23 03:55 UTC. Time now 2018-Jun-23 07:51 UTC.
Position N 41°46' W 071°23'.

Length 21 m.

Type: Passenger vessel. MMSI: 366900190.

Date/timePositionNaut miles runAvg speedWind from/ knotsBaromVisibWave heightAir tempDewpointWater temp
2018-Jun-23 03:55N 41°46' W 071°23'4 2.2
2018-Jun-23 01:54N 41°42' W 071°20'3 2.7
2018-Jun-23 00:54N 41°44' W 071°22'3 1.6
2018-Jun-22 22:55N 41°42' W 071°20'5 5.1
2018-Jun-22 21:58N 41°46' W 071°23'2 0.8
2018-Jun-22 19:49N 41°44' W 071°22'2 2.0
2018-Jun-22 18:59N 41°46' W 071°22'1 0.4
2018-Jun-22 15:55N 41°45' W 071°22'4 1.9
2018-Jun-22 13:56N 41°42' W 071°19'5 0.4
2018-Jun-22 00:58N 41°46' W 071°22'5 2.4
2018-Jun-21 22:56N 41°41' W 071°20'3 3.2
2018-Jun-21 21:54N 41°44' W 071°22'3 1.0
2018-Jun-21 18:48N 41°42' W 071°20'0 0.3
2018-Jun-21 16:58N 41°42' W 071°19'5 4.7
2018-Jun-21 15:56N 41°46' W 071°22'5 2.3
2018-Jun-21 13:56N 41°42' W 071°19'4 0.3
2018-Jun-20 23:58N 41°46' W 071°23'5 2.2
2018-Jun-20 21:55N 41°42' W 071°19'5 2.6
2018-Jun-20 19:57N 41°47' W 071°22'6 6.7
2018-Jun-20 19:06N 41°41' W 071°19'425.6
2018-Jun-20 18:58N 41°44' W 071°22'2 4.8
2018-Jun-20 18:30N 41°47' W 071°22'5 2.5
2018-Jun-20 16:24N 41°42' W 071°19'5 5.1
2018-Jun-20 15:27N 41°46' W 071°22'0 0.0
2018-Jun-19 23:56N 41°46' W 071°22'5 2.3
2018-Jun-19 21:52N 41°42' W 071°20'3 0.8
2018-Jun-19 18:23N 41°44' W 071°22'3 1.4
2018-Jun-19 16:25N 41°42' W 071°20'5 5.0
2018-Jun-19 15:28N 41°46' W 071°22'5 2.5
2018-Jun-19 13:28N 41°42' W 071°19'5 0.3
2018-Jun-18 23:55N 41°46' W 071°22'4 2.2
2018-Jun-18 21:54N 41°42' W 071°20'5 1.3
2018-Jun-18 18:30N 41°46' W 071°22'5 2.3
2018-Jun-18 16:26N 41°42' W 071°19'5 5.0
2018-Jun-18 15:27N 41°46' W 071°22'1 0.1
2018-Jun-17 23:33N 41°47' W 071°23'119.9
2018-Jun-17 23:28N 41°46' W 071°22'5 1.4
2018-Jun-17 19:55N 41°42' W 071°19'5 6.2
2018-Jun-17 19:05N 41°46' W 071°22'223.2
2018-Jun-17 19:00N 41°45' W 071°22'4 2.1
2018-Jun-17 17:04N 41°42' W 071°19'221.1
2018-Jun-17 16:59N 41°43' W 071°20'4 0.2
2018-Jun-16 23:31N 41°47' W 071°22'022.5
2018-Jun-16 23:30N 41°46' W 071°22'5 1.5
2018-Jun-16 19:56N 41°41' W 071°19'5 5.8
2018-Jun-16 19:00N 41°46' W 071°22'5 2.6
2018-Jun-16 16:56N 41°42' W 071°19'6 6.0
2018-Jun-16 16:00N 41°47' W 071°22'5 2.7
2018-Jun-16 13:59N 41°42' W 071°19'5 0.4
2018-Jun-15 23:30N 41°46' W 071°22'5 1.1
2018-Jun-15 18:54N 41°42' W 071°19'5 2.1
2018-Jun-15 16:30N 41°46' W 071°22'5 2.6
2018-Jun-15 14:28N 41°42' W 071°19'5 0.4
2018-Jun-14 23:28N 41°46' W 071°22'5 2.6
2018-Jun-14 21:25N 41°42' W 071°19'5 1.1
2018-Jun-14 16:30N 41°46' W 071°22'5 2.7
2018-Jun-14 14:30N 41°42' W 071°19'6 0.4
2018-Jun-13 23:24N 41°47' W 071°22'6 1.2
2018-Jun-13 18:56N 41°42' W 071°19'5 2.2
2018-Jun-13 16:29N 41°47' W 071°22'6 2.7
2018-Jun-13 14:25N 41°41' W 071°19'  
Track history (hours):
 
Tides and Currents Weather Stations Pressure Air Temp Water Temp Dewpoint Dewpoint Depression Visibility Wind Speed Wind Dir Waves Ship Positions

Ocean State

Owner: New England Fast Ferry Company LLC, BOSTON, MA. More information available from US FCC via Universal Licensing System and Coast Guard Vessel Documentation Center.

Last reported at 2018-Jun-23 03:55 UTC. Time now 2018-Jun-23 07:51 UTC.
Position N 41°46' W 071°23'.

Length 21 m.

Type: Passenger vessel. MMSI: 366900190.

Date/timePositionNaut miles runAvg speedWind from/ knotsBaromVisibWave heightAir tempDewpointWater temp
2018-Jun-23 03:55N 41°46' W 071°23'4 2.2
2018-Jun-23 01:54N 41°42' W 071°20'3 2.7
2018-Jun-23 00:54N 41°44' W 071°22'3 1.6
2018-Jun-22 22:55N 41°42' W 071°20'5 5.1
2018-Jun-22 21:58N 41°46' W 071°23'2 0.8
2018-Jun-22 19:49N 41°44' W 071°22'2 2.0
2018-Jun-22 18:59N 41°46' W 071°22'1 0.4
2018-Jun-22 15:55N 41°45' W 071°22'4 1.9
2018-Jun-22 13:56N 41°42' W 071°19'5 0.4
2018-Jun-22 00:58N 41°46' W 071°22'5 2.4
2018-Jun-21 22:56N 41°41' W 071°20'3 3.2
2018-Jun-21 21:54N 41°44' W 071°22'3 1.0
2018-Jun-21 18:48N 41°42' W 071°20'0 0.3
2018-Jun-21 16:58N 41°42' W 071°19'5 4.7
2018-Jun-21 15:56N 41°46' W 071°22'5 2.3
2018-Jun-21 13:56N 41°42' W 071°19'4 0.3
2018-Jun-20 23:58N 41°46' W 071°23'5 2.2
2018-Jun-20 21:55N 41°42' W 071°19'5 2.6
2018-Jun-20 19:57N 41°47' W 071°22'6 6.7
2018-Jun-20 19:06N 41°41' W 071°19'425.6
2018-Jun-20 18:58N 41°44' W 071°22'2 4.8
2018-Jun-20 18:30N 41°47' W 071°22'5 2.5
2018-Jun-20 16:24N 41°42' W 071°19'5 5.1
2018-Jun-20 15:27N 41°46' W 071°22'0 0.0
2018-Jun-19 23:56N 41°46' W 071°22'5 2.3
2018-Jun-19 21:52N 41°42' W 071°20'3 0.8
2018-Jun-19 18:23N 41°44' W 071°22'3 1.4
2018-Jun-19 16:25N 41°42' W 071°20'5 5.0
2018-Jun-19 15:28N 41°46' W 071°22'5 2.5
2018-Jun-19 13:28N 41°42' W 071°19'5 0.3
2018-Jun-18 23:55N 41°46' W 071°22'4 2.2
2018-Jun-18 21:54N 41°42' W 071°20'5 1.3
2018-Jun-18 18:30N 41°46' W 071°22'5 2.3
2018-Jun-18 16:26N 41°42' W 071°19'5 5.0
2018-Jun-18 15:27N 41°46' W 071°22'1 0.1
2018-Jun-17 23:33N 41°47' W 071°23'119.9
2018-Jun-17 23:28N 41°46' W 071°22'5 1.4
2018-Jun-17 19:55N 41°42' W 071°19'5 6.2
2018-Jun-17 19:05N 41°46' W 071°22'223.2
2018-Jun-17 19:00N 41°45' W 071°22'4 2.1
2018-Jun-17 17:04N 41°42' W 071°19'221.1
2018-Jun-17 16:59N 41°43' W 071°20'4 0.2
2018-Jun-16 23:31N 41°47' W 071°22'022.5
2018-Jun-16 23:30N 41°46' W 071°22'5 1.5
2018-Jun-16 19:56N 41°41' W 071°19'5 5.8
2018-Jun-16 19:00N 41°46' W 071°22'5 2.6
2018-Jun-16 16:56N 41°42' W 071°19'6 6.0
2018-Jun-16 16:00N 41°47' W 071°22'5 2.7
2018-Jun-16 13:59N 41°42' W 071°19'5 0.4
2018-Jun-15 23:30N 41°46' W 071°22'5 1.1
2018-Jun-15 18:54N 41°42' W 071°19'5 2.1
2018-Jun-15 16:30N 41°46' W 071°22'5 2.6
2018-Jun-15 14:28N 41°42' W 071°19'5 0.4
2018-Jun-14 23:28N 41°46' W 071°22'5 2.6
2018-Jun-14 21:25N 41°42' W 071°19'5 1.1
2018-Jun-14 16:30N 41°46' W 071°22'5 2.7
2018-Jun-14 14:30N 41°42' W 071°19'6 0.4
2018-Jun-13 23:24N 41°47' W 071°22'6 1.2
2018-Jun-13 18:56N 41°42' W 071°19'5 2.2
2018-Jun-13 16:29N 41°47' W 071°22'6 2.7
2018-Jun-13 14:25N 41°41' W 071°19'  

Dump ship's entire track history